sensor_id;sensor_type;location;lat;lon;timestamp;pressure;altitude;pressure_sealevel;temperature;humidity
62926;BME280;55732;52.248;-0.844;2023-04-07T00:01:03;100978.12;;;6.12;76.27
62926;BME280;55732;52.248;-0.844;2023-04-07T00:03:28;100981.75;;;6.10;76.46
62926;BME280;55732;52.248;-0.844;2023-04-07T00:05:54;100994.64;;;6.09;76.39
62926;BME280;55732;52.248;-0.844;2023-04-07T00:08:19;100996.33;;;6.06;76.65
62926;BME280;55732;52.248;-0.844;2023-04-07T00:10:45;100994.36;;;6.04;76.88
62926;BME280;55732;52.248;-0.844;2023-04-07T00:13:11;100996.93;;;6.02;76.89
62926;BME280;55732;52.248;-0.844;2023-04-07T00:15:36;101001.45;;;6.01;77.05
62926;BME280;55732;52.248;-0.844;2023-04-07T00:18:02;101008.25;;;6.00;77.02
62926;BME280;55732;52.248;-0.844;2023-04-07T00:20:27;101011.52;;;5.98;77.22
62926;BME280;55732;52.248;-0.844;2023-04-07T00:22:53;101012.88;;;5.97;77.22
62926;BME280;55732;52.248;-0.844;2023-04-07T00:25:18;101015.11;;;5.95;77.48
62926;BME280;55732;52.248;-0.844;2023-04-07T00:27:43;101015.27;;;5.95;77.20
62926;BME280;55732;52.248;-0.844;2023-04-07T00:30:09;101014.56;;;5.94;77.49
62926;BME280;55732;52.248;-0.844;2023-04-07T00:32:35;101014.36;;;5.93;77.47
62926;BME280;55732;52.248;-0.844;2023-04-07T00:35:00;101014.86;;;5.92;77.62
62926;BME280;55732;52.248;-0.844;2023-04-07T00:37:26;101017.64;;;5.92;77.56
62926;BME280;55732;52.248;-0.844;2023-04-07T00:39:51;101020.24;;;5.91;77.71
62926;BME280;55732;52.248;-0.844;2023-04-07T00:42:17;101017.05;;;5.89;77.71
62926;BME280;55732;52.248;-0.844;2023-04-07T00:44:43;101023.81;;;5.87;77.93
62926;BME280;55732;52.248;-0.844;2023-04-07T00:47:08;101024.49;;;5.87;77.90
62926;BME280;55732;52.248;-0.844;2023-04-07T00:49:36;101020.44;;;5.86;77.90
62926;BME280;55732;52.248;-0.844;2023-04-07T00:52:01;101021.63;;;5.84;77.98
62926;BME280;55732;52.248;-0.844;2023-04-07T00:54:29;101020.70;;;5.82;78.05
62926;BME280;55732;52.248;-0.844;2023-04-07T00:56:55;101024.16;;;5.81;78.15
62926;BME280;55732;52.248;-0.844;2023-04-07T00:59:22;101022.91;;;5.80;78.08
62926;BME280;55732;52.248;-0.844;2023-04-07T01:02:02;101024.13;;;5.80;78.10
62926;BME280;55732;52.248;-0.844;2023-04-07T01:07:22;101030.20;;;5.77;78.34
62926;BME280;55732;52.248;-0.844;2023-04-07T01:10:11;101033.31;;;5.75;78.46
62926;BME280;55732;52.248;-0.844;2023-04-07T01:12:53;101038.50;;;5.74;78.50
62926;BME280;55732;52.248;-0.844;2023-04-07T01:15:20;101036.21;;;5.73;78.59
62926;BME280;55732;52.248;-0.844;2023-04-07T01:18:04;101038.48;;;5.73;78.79
62926;BME280;55732;52.248;-0.844;2023-04-07T01:20:32;101034.23;;;5.71;78.93
62926;BME280;55732;52.248;-0.844;2023-04-07T01:23:03;101032.45;;;5.70;78.80
62926;BME280;55732;52.248;-0.844;2023-04-07T01:26:03;101032.41;;;5.68;78.97
62926;BME280;55732;52.248;-0.844;2023-04-07T01:28:43;101037.27;;;5.66;78.91
62926;BME280;55732;52.248;-0.844;2023-04-07T01:31:14;101034.10;;;5.65;78.71
62926;BME280;55732;52.248;-0.844;2023-04-07T01:33:43;101033.55;;;5.64;78.98
62926;BME280;55732;52.248;-0.844;2023-04-07T01:36:10;101035.24;;;5.63;79.11
62926;BME280;55732;52.248;-0.844;2023-04-07T01:38:37;101036.07;;;5.61;79.20
62926;BME280;55732;52.248;-0.844;2023-04-07T01:41:03;101036.04;;;5.60;79.08
62926;BME280;55732;52.248;-0.844;2023-04-07T01:43:31;101037.23;;;5.59;79.05
62926;BME280;55732;52.248;-0.844;2023-04-07T01:45:57;101034.54;;;5.57;79.22
62926;BME280;55732;52.248;-0.844;2023-04-07T01:48:24;101034.14;;;5.55;79.35
62926;BME280;55732;52.248;-0.844;2023-04-07T01:50:50;101034.28;;;5.52;79.44
62926;BME280;55732;52.248;-0.844;2023-04-07T01:53:16;101031.80;;;5.51;79.37
62926;BME280;55732;52.248;-0.844;2023-04-07T01:55:42;101033.86;;;5.50;79.52
62926;BME280;55732;52.248;-0.844;2023-04-07T01:58:08;101032.59;;;5.49;79.52
62926;BME280;55732;52.248;-0.844;2023-04-07T02:00:34;101038.12;;;5.47;79.89
62926;BME280;55732;52.248;-0.844;2023-04-07T02:03:11;101038.09;;;5.45;79.90
62926;BME280;55732;52.248;-0.844;2023-04-07T02:05:49;101042.79;;;5.44;79.95
62926;BME280;55732;52.248;-0.844;2023-04-07T02:08:18;101045.02;;;5.44;79.70
62926;BME280;55732;52.248;-0.844;2023-04-07T02:10:47;101044.46;;;5.42;79.86
62926;BME280;55732;52.248;-0.844;2023-04-07T02:13:18;101045.83;;;5.40;79.95
62926;BME280;55732;52.248;-0.844;2023-04-07T02:15:45;101045.45;;;5.39;80.13
62926;BME280;55732;52.248;-0.844;2023-04-07T02:18:14;101047.81;;;5.37;80.40
62926;BME280;55732;52.248;-0.844;2023-04-07T02:20:41;101051.29;;;5.36;80.23
62926;BME280;55732;52.248;-0.844;2023-04-07T02:23:08;101053.34;;;5.35;80.45
62926;BME280;55732;52.248;-0.844;2023-04-07T02:25:33;101053.13;;;5.33;80.57
62926;BME280;55732;52.248;-0.844;2023-04-07T02:28:03;101053.96;;;5.32;80.53
62926;BME280;55732;52.248;-0.844;2023-04-07T02:30:30;101053.05;;;5.30;80.48
62926;BME280;55732;52.248;-0.844;2023-04-07T02:32:56;101057.04;;;5.28;80.80
62926;BME280;55732;52.248;-0.844;2023-04-07T02:35:22;101054.73;;;5.27;80.76
62926;BME280;55732;52.248;-0.844;2023-04-07T02:37:47;101055.20;;;5.26;80.72
62926;BME280;55732;52.248;-0.844;2023-04-07T02:40:14;101058.48;;;5.24;80.82
62926;BME280;55732;52.248;-0.844;2023-04-07T02:42:40;101057.02;;;5.22;80.94
62926;BME280;55732;52.248;-0.844;2023-04-07T02:45:07;101057.84;;;5.21;81.01
62926;BME280;55732;52.248;-0.844;2023-04-07T02:47:33;101055.88;;;5.19;81.07
62926;BME280;55732;52.248;-0.844;2023-04-07T02:49:59;101055.80;;;5.16;81.22
62926;BME280;55732;52.248;-0.844;2023-04-07T02:52:25;101060.27;;;5.14;81.23
62926;BME280;55732;52.248;-0.844;2023-04-07T02:54:50;101060.17;;;5.11;81.32
62926;BME280;55732;52.248;-0.844;2023-04-07T02:57:17;101060.98;;;5.08;81.48
62926;BME280;55732;52.248;-0.844;2023-04-07T02:59:42;101061.61;;;5.05;81.63
62926;BME280;55732;52.248;-0.844;2023-04-07T03:02:07;101057.88;;;5.03;81.69
62926;BME280;55732;52.248;-0.844;2023-04-07T03:04:33;101053.80;;;5.01;81.89
62926;BME280;55732;52.248;-0.844;2023-04-07T03:06:59;101057.42;;;5.00;81.95
62926;BME280;55732;52.248;-0.844;2023-04-07T03:09:25;101057.04;;;4.98;82.05
62926;BME280;55732;52.248;-0.844;2023-04-07T03:11:50;101056.30;;;4.97;81.99
62926;BME280;55732;52.248;-0.844;2023-04-07T03:14:16;101049.13;;;4.97;82.07
62926;BME280;55732;52.248;-0.844;2023-04-07T03:16:41;101044.22;;;4.96;82.17
62926;BME280;55732;52.248;-0.844;2023-04-07T03:19:08;101041.06;;;4.94;82.18
62926;BME280;55732;52.248;-0.844;2023-04-07T03:21:34;101040.88;;;4.94;82.33
62926;BME280;55732;52.248;-0.844;2023-04-07T03:24:00;101044.37;;;4.94;82.31
62926;BME280;55732;52.248;-0.844;2023-04-07T03:26:25;101048.40;;;4.95;82.08
62926;BME280;55732;52.248;-0.844;2023-04-07T03:28:51;101047.54;;;4.95;82.23
62926;BME280;55732;52.248;-0.844;2023-04-07T03:31:17;101046.48;;;4.96;82.27
62926;BME280;55732;52.248;-0.844;2023-04-07T03:33:42;101045.80;;;4.96;81.99
62926;BME280;55732;52.248;-0.844;2023-04-07T03:36:07;101050.55;;;4.97;82.01
62926;BME280;55732;52.248;-0.844;2023-04-07T03:38:33;101056.16;;;4.98;82.07
62926;BME280;55732;52.248;-0.844;2023-04-07T03:40:58;101056.67;;;4.98;82.09
62926;BME280;55732;52.248;-0.844;2023-04-07T03:43:24;101058.02;;;4.97;82.18
62926;BME280;55732;52.248;-0.844;2023-04-07T03:45:53;101054.88;;;4.97;82.14
62926;BME280;55732;52.248;-0.844;2023-04-07T03:48:19;101054.17;;;4.96;81.98
62926;BME280;55732;52.248;-0.844;2023-04-07T03:50:45;101053.66;;;4.96;81.85
62926;BME280;55732;52.248;-0.844;2023-04-07T03:53:11;101051.91;;;4.96;81.83
62926;BME280;55732;52.248;-0.844;2023-04-07T03:55:38;101048.58;;;4.95;81.87
62926;BME280;55732;52.248;-0.844;2023-04-07T03:58:04;101055.52;;;4.94;82.03
62926;BME280;55732;52.248;-0.844;2023-04-07T04:00:30;101055.14;;;4.93;81.99
62926;BME280;55732;52.248;-0.844;2023-04-07T04:02:58;101058.77;;;4.92;81.98
62926;BME280;55732;52.248;-0.844;2023-04-07T04:05:23;101059.29;;;4.91;82.02
62926;BME280;55732;52.248;-0.844;2023-04-07T04:07:48;101062.03;;;4.90;82.03
62926;BME280;55732;52.248;-0.844;2023-04-07T04:10:15;101062.70;;;4.89;81.99
62926;BME280;55732;52.248;-0.844;2023-04-07T04:12:41;101066.64;;;4.87;81.92
62926;BME280;55732;52.248;-0.844;2023-04-07T04:15:07;101073.92;;;4.85;82.02
62926;BME280;55732;52.248;-0.844;2023-04-07T04:17:32;101074.26;;;4.85;82.02
62926;BME280;55732;52.248;-0.844;2023-04-07T04:19:58;101072.48;;;4.83;81.93
62926;BME280;55732;52.248;-0.844;2023-04-07T04:22:23;101074.14;;;4.80;81.99
62926;BME280;55732;52.248;-0.844;2023-04-07T04:24:48;101075.09;;;4.77;81.97
62926;BME280;55732;52.248;-0.844;2023-04-07T04:27:14;101071.12;;;4.73;81.92
62926;BME280;55732;52.248;-0.844;2023-04-07T04:29:39;101075.58;;;4.70;82.08
62926;BME280;55732;52.248;-0.844;2023-04-07T04:32:05;101075.64;;;4.67;82.10
62926;BME280;55732;52.248;-0.844;2023-04-07T04:34:30;101078.83;;;4.63;82.23
62926;BME280;55732;52.248;-0.844;2023-04-07T04:36:55;101077.17;;;4.60;82.19
62926;BME280;55732;52.248;-0.844;2023-04-07T04:39:21;101078.38;;;4.59;82.14
62926;BME280;55732;52.248;-0.844;2023-04-07T04:41:46;101081.40;;;4.56;82.01
62926;BME280;55732;52.248;-0.844;2023-04-07T04:44:12;101089.79;;;4.51;82.09
62926;BME280;55732;52.248;-0.844;2023-04-07T04:46:37;101099.52;;;4.44;82.02
62926;BME280;55732;52.248;-0.844;2023-04-07T04:49:02;101098.27;;;4.38;82.10
62926;BME280;55732;52.248;-0.844;2023-04-07T04:51:28;101097.92;;;4.32;82.13
62926;BME280;55732;52.248;-0.844;2023-04-07T04:53:53;101102.25;;;4.27;82.31
62926;BME280;55732;52.248;-0.844;2023-04-07T04:56:19;101103.02;;;4.22;82.39
62926;BME280;55732;52.248;-0.844;2023-04-07T04:58:45;101105.34;;;4.19;82.53
62926;BME280;55732;52.248;-0.844;2023-04-07T05:01:11;101108.86;;;4.15;82.71
62926;BME280;55732;52.248;-0.844;2023-04-07T05:03:37;101109.45;;;4.12;82.58
62926;BME280;55732;52.248;-0.844;2023-04-07T05:06:03;101111.59;;;4.08;82.49
62926;BME280;55732;52.248;-0.844;2023-04-07T05:08:28;101109.16;;;4.04;82.55
62926;BME280;55732;52.248;-0.844;2023-04-07T05:10:54;101113.52;;;3.98;82.52
62926;BME280;55732;52.248;-0.844;2023-04-07T05:13:20;101116.20;;;3.95;82.73
62926;BME280;55732;52.248;-0.844;2023-04-07T05:15:46;101119.03;;;3.91;82.71
62926;BME280;55732;52.248;-0.844;2023-04-07T05:18:11;101124.33;;;3.88;82.82
62926;BME280;55732;52.248;-0.844;2023-04-07T05:20:37;101126.83;;;3.85;82.85
62926;BME280;55732;52.248;-0.844;2023-04-07T05:23:03;101133.56;;;3.83;83.00
62926;BME280;55732;52.248;-0.844;2023-04-07T05:25:28;101136.70;;;3.83;83.23
62926;BME280;55732;52.248;-0.844;2023-04-07T05:27:54;101141.44;;;3.84;83.25
62926;BME280;55732;52.248;-0.844;2023-04-07T05:30:20;101145.29;;;3.85;83.13
62926;BME280;55732;52.248;-0.844;2023-04-07T05:32:45;101143.23;;;3.85;83.27
62926;BME280;55732;52.248;-0.844;2023-04-07T05:35:11;101138.45;;;3.89;83.57
62926;BME280;55732;52.248;-0.844;2023-04-07T05:37:36;101143.31;;;3.93;83.40
62926;BME280;55732;52.248;-0.844;2023-04-07T05:40:02;101148.08;;;4.00;83.60
62926;BME280;55732;52.248;-0.844;2023-04-07T05:42:27;101148.33;;;4.07;83.43
62926;BME280;55732;52.248;-0.844;2023-04-07T05:44:52;101153.41;;;4.18;83.29
62926;BME280;55732;52.248;-0.844;2023-04-07T05:47:18;101159.23;;;4.30;83.00
62926;BME280;55732;52.248;-0.844;2023-04-07T05:49:43;101162.83;;;4.45;82.92
62926;BME280;55732;52.248;-0.844;2023-04-07T05:52:12;101164.20;;;4.60;82.57
62926;BME280;55732;52.248;-0.844;2023-04-07T05:54:38;101164.67;;;4.75;82.47
62926;BME280;55732;52.248;-0.844;2023-04-07T05:57:05;101166.02;;;4.89;82.24
62926;BME280;55732;52.248;-0.844;2023-04-07T05:59:32;101164.01;;;5.04;81.99
62926;BME280;55732;52.248;-0.844;2023-04-07T06:01:57;101162.23;;;5.21;81.78
62926;BME280;55732;52.248;-0.844;2023-04-07T06:04:23;101165.87;;;5.37;81.34
62926;BME280;55732;52.248;-0.844;2023-04-07T06:06:48;101166.17;;;5.54;80.98
62926;BME280;55732;52.248;-0.844;2023-04-07T06:09:14;101170.58;;;5.74;80.52
62926;BME280;55732;52.248;-0.844;2023-04-07T06:11:39;101169.53;;;5.98;79.95
62926;BME280;55732;52.248;-0.844;2023-04-07T06:14:05;101169.61;;;6.21;79.69
62926;BME280;55732;52.248;-0.844;2023-04-07T06:16:30;101170.03;;;6.44;79.32
62926;BME280;55732;52.248;-0.844;2023-04-07T06:18:56;101174.91;;;6.73;79.05
62926;BME280;55732;52.248;-0.844;2023-04-07T06:21:21;101170.86;;;7.26;77.94
62926;BME280;55732;52.248;-0.844;2023-04-07T06:23:46;101171.46;;;7.80;76.47
62926;BME280;55732;52.248;-0.844;2023-04-07T06:26:12;101169.80;;;8.53;74.83
62926;BME280;55732;52.248;-0.844;2023-04-07T06:28:38;101173.21;;;9.71;72.52
62926;BME280;55732;52.248;-0.844;2023-04-07T06:31:03;101175.97;;;10.94;70.22
62926;BME280;55732;52.248;-0.844;2023-04-07T06:33:30;101177.42;;;12.75;68.05
62926;BME280;55732;52.248;-0.844;2023-04-07T06:35:55;101178.35;;;14.66;65.22
62926;BME280;55732;52.248;-0.844;2023-04-07T06:38:22;101173.59;;;16.56;61.31
62926;BME280;55732;52.248;-0.844;2023-04-07T06:40:47;101181.90;;;17.67;58.88
62926;BME280;55732;52.248;-0.844;2023-04-07T06:43:13;101181.92;;;18.38;56.77
62926;BME280;55732;52.248;-0.844;2023-04-07T06:45:38;101183.26;;;19.71;53.26
62926;BME280;55732;52.248;-0.844;2023-04-07T06:48:04;101183.48;;;20.56;50.79
62926;BME280;55732;52.248;-0.844;2023-04-07T06:50:30;101184.16;;;21.21;49.49
62926;BME280;55732;52.248;-0.844;2023-04-07T06:52:55;101189.45;;;21.58;47.35
62926;BME280;55732;52.248;-0.844;2023-04-07T06:55:21;101196.73;;;22.16;46.12
62926;BME280;55732;52.248;-0.844;2023-04-07T06:57:46;101201.67;;;22.09;45.77
62926;BME280;55732;52.248;-0.844;2023-04-07T07:00:11;101205.77;;;22.15;44.88
62926;BME280;55732;52.248;-0.844;2023-04-07T07:02:37;101203.58;;;22.77;43.29
62926;BME280;55732;52.248;-0.844;2023-04-07T07:05:03;101205.07;;;22.93;42.19
62926;BME280;55732;52.248;-0.844;2023-04-07T07:07:29;101206.67;;;22.32;41.92
62926;BME280;55732;52.248;-0.844;2023-04-07T07:09:55;101205.18;;;21.88;41.94
62926;BME280;55732;52.248;-0.844;2023-04-07T07:12:20;101206.00;;;22.22;41.59
62926;BME280;55732;52.248;-0.844;2023-04-07T07:14:45;101207.04;;;22.41;40.81
62926;BME280;55732;52.248;-0.844;2023-04-07T07:17:12;101207.10;;;22.83;40.26
62926;BME280;55732;52.248;-0.844;2023-04-07T07:19:37;101207.16;;;24.22;38.63
62926;BME280;55732;52.248;-0.844;2023-04-07T07:22:03;101204.27;;;25.54;36.95
62926;BME280;55732;52.248;-0.844;2023-04-07T07:24:30;101210.36;;;26.96;35.46
62926;BME280;55732;52.248;-0.844;2023-04-07T07:26:58;101207.69;;;28.37;33.25
62926;BME280;55732;52.248;-0.844;2023-04-07T07:29:24;101204.88;;;29.56;31.65
62926;BME280;55732;52.248;-0.844;2023-04-07T07:31:49;101206.81;;;30.64;30.53
62926;BME280;55732;52.248;-0.844;2023-04-07T07:34:15;101209.22;;;31.60;29.61
62926;BME280;55732;52.248;-0.844;2023-04-07T07:36:40;101208.35;;;32.47;27.81
62926;BME280;55732;52.248;-0.844;2023-04-07T07:39:06;101214.81;;;33.15;26.81
62926;BME280;55732;52.248;-0.844;2023-04-07T07:41:31;101222.67;;;33.78;26.10
62926;BME280;55732;52.248;-0.844;2023-04-07T07:43:56;101227.38;;;34.33;25.23
62926;BME280;55732;52.248;-0.844;2023-04-07T07:46:22;101227.11;;;34.82;24.34
62926;BME280;55732;52.248;-0.844;2023-04-07T07:48:50;101226.60;;;35.01;23.23
62926;BME280;55732;52.248;-0.844;2023-04-07T07:51:15;101229.14;;;35.26;23.18
62926;BME280;55732;52.248;-0.844;2023-04-07T07:53:43;101226.82;;;35.62;22.56
62926;BME280;55732;52.248;-0.844;2023-04-07T07:56:09;101229.70;;;36.08;22.05
62926;BME280;55732;52.248;-0.844;2023-04-07T07:58:35;101229.14;;;36.72;21.30
62926;BME280;55732;52.248;-0.844;2023-04-07T08:01:01;101230.73;;;37.23;20.92
62926;BME280;55732;52.248;-0.844;2023-04-07T08:03:26;101232.46;;;37.53;20.00
62926;BME280;55732;52.248;-0.844;2023-04-07T08:05:52;101234.37;;;37.55;20.36
62926;BME280;55732;52.248;-0.844;2023-04-07T08:08:17;101235.11;;;37.84;19.58
62926;BME280;55732;52.248;-0.844;2023-04-07T08:10:43;101238.96;;;37.76;19.10
62926;BME280;55732;52.248;-0.844;2023-04-07T08:13:08;101232.91;;;37.86;19.06
62926;BME280;55732;52.248;-0.844;2023-04-07T08:15:34;101231.66;;;37.94;18.92
62926;BME280;55732;52.248;-0.844;2023-04-07T08:17:59;101230.09;;;38.18;18.58
62926;BME280;55732;52.248;-0.844;2023-04-07T08:20:27;101233.71;;;38.21;17.70
62926;BME280;55732;52.248;-0.844;2023-04-07T08:22:52;101233.73;;;37.87;18.26
62926;BME280;55732;52.248;-0.844;2023-04-07T08:25:18;101238.82;;;37.99;17.60
62926;BME280;55732;52.248;-0.844;2023-04-07T08:27:45;101233.21;;;37.88;17.40
62926;BME280;55732;52.248;-0.844;2023-04-07T08:30:10;101235.38;;;38.07;17.85
62926;BME280;55732;52.248;-0.844;2023-04-07T08:32:40;101236.35;;;38.13;17.39
62926;BME280;55732;52.248;-0.844;2023-04-07T08:35:06;101236.65;;;38.25;17.32
62926;BME280;55732;52.248;-0.844;2023-04-07T08:37:33;101238.77;;;38.46;17.03
62926;BME280;55732;52.248;-0.844;2023-04-07T08:40:00;101240.23;;;38.73;16.99
62926;BME280;55732;52.248;-0.844;2023-04-07T08:42:28;101240.75;;;38.51;16.43
62926;BME280;55732;52.248;-0.844;2023-04-07T08:45:01;101237.95;;;38.21;16.75
62926;BME280;55732;52.248;-0.844;2023-04-07T08:47:30;101238.05;;;37.90;16.57
62926;BME280;55732;52.248;-0.844;2023-04-07T08:50:00;101242.36;;;37.20;16.37
62926;BME280;55732;52.248;-0.844;2023-04-07T08:52:37;101241.16;;;36.75;16.66
62926;BME280;55732;52.248;-0.844;2023-04-07T08:55:04;101236.25;;;36.65;16.88
62926;BME280;55732;52.248;-0.844;2023-04-07T08:57:33;101239.34;;;36.75;17.04
62926;BME280;55732;52.248;-0.844;2023-04-07T09:00:00;101242.10;;;37.14;17.43
62926;BME280;55732;52.248;-0.844;2023-04-07T09:02:33;101241.96;;;37.49;16.96
62926;BME280;55732;52.248;-0.844;2023-04-07T09:04:59;101242.63;;;37.55;16.80
62926;BME280;55732;52.248;-0.844;2023-04-07T09:07:25;101243.30;;;37.40;16.00
62926;BME280;55732;52.248;-0.844;2023-04-07T09:09:51;101243.63;;;36.83;16.22
62926;BME280;55732;52.248;-0.844;2023-04-07T09:12:16;101237.45;;;36.38;16.87
62926;BME280;55732;52.248;-0.844;2023-04-07T09:14:42;101237.23;;;36.55;17.09
62926;BME280;55732;52.248;-0.844;2023-04-07T09:17:08;101236.39;;;36.75;17.23
62926;BME280;55732;52.248;-0.844;2023-04-07T09:19:33;101240.18;;;36.43;16.68
62926;BME280;55732;52.248;-0.844;2023-04-07T09:21:59;101237.70;;;36.40;16.97
62926;BME280;55732;52.248;-0.844;2023-04-07T09:24:28;101234.91;;;36.78;17.11
62926;BME280;55732;52.248;-0.844;2023-04-07T09:27:13;101239.30;;;37.07;16.78
62926;BME280;55732;52.248;-0.844;2023-04-07T09:29:41;101240.91;;;36.64;16.83
62926;BME280;55732;52.248;-0.844;2023-04-07T09:32:07;101237.45;;;36.24;16.95
62926;BME280;55732;52.248;-0.844;2023-04-07T09:34:37;101234.15;;;36.26;17.01
62926;BME280;55732;52.248;-0.844;2023-04-07T09:37:05;101233.34;;;36.00;16.58
62926;BME280;55732;52.248;-0.844;2023-04-07T09:39:31;101235.66;;;35.73;17.21
62926;BME280;55732;52.248;-0.844;2023-04-07T09:41:57;101240.30;;;35.19;16.82
62926;BME280;55732;52.248;-0.844;2023-04-07T09:44:24;101240.19;;;34.47;17.43
62926;BME280;55732;52.248;-0.844;2023-04-07T09:46:55;101239.64;;;33.95;17.68
62926;BME280;55732;52.248;-0.844;2023-04-07T09:49:25;101235.14;;;33.56;18.29
62926;BME280;55732;52.248;-0.844;2023-04-07T09:51:54;101242.45;;;33.10;18.26
62926;BME280;55732;52.248;-0.844;2023-04-07T09:54:34;101240.14;;;32.49;19.00
62926;BME280;55732;52.248;-0.844;2023-04-07T09:57:06;101240.70;;;32.38;19.39
62926;BME280;55732;52.248;-0.844;2023-04-07T09:59:33;101242.48;;;32.62;19.41
62926;BME280;55732;52.248;-0.844;2023-04-07T10:01:59;101237.79;;;32.59;19.33
62926;BME280;55732;52.248;-0.844;2023-04-07T10:04:26;101238.25;;;32.58;19.62
62926;BME280;55732;52.248;-0.844;2023-04-07T10:06:52;101237.60;;;32.39;19.32
62926;BME280;55732;52.248;-0.844;2023-04-07T10:09:19;101235.81;;;32.10;19.39
62926;BME280;55732;52.248;-0.844;2023-04-07T10:11:47;101236.39;;;31.94;19.47
62926;BME280;55732;52.248;-0.844;2023-04-07T10:14:13;101232.83;;;31.66;20.05
62926;BME280;55732;52.248;-0.844;2023-04-07T10:16:41;101231.73;;;31.89;19.98
62926;BME280;55732;52.248;-0.844;2023-04-07T10:19:07;101231.71;;;32.02;19.66
62926;BME280;55732;52.248;-0.844;2023-04-07T10:21:37;101236.27;;;32.07;20.00
62926;BME280;55732;52.248;-0.844;2023-04-07T10:26:54;101231.86;;;32.43;20.00
62926;BME280;55732;52.248;-0.844;2023-04-07T10:29:22;101225.85;;;32.43;20.20
62926;BME280;55732;52.248;-0.844;2023-04-07T10:31:49;101223.98;;;32.33;20.25
62926;BME280;55732;52.248;-0.844;2023-04-07T10:34:14;101219.63;;;32.21;20.36
62926;BME280;55732;52.248;-0.844;2023-04-07T10:37:09;101217.95;;;32.08;20.43
62926;BME280;55732;52.248;-0.844;2023-04-07T10:39:35;101222.45;;;31.45;20.30
62926;BME280;55732;52.248;-0.844;2023-04-07T10:42:02;101226.65;;;30.39;21.08
62926;BME280;55732;52.248;-0.844;2023-04-07T10:47:05;101224.20;;;28.37;23.22
62926;BME280;55732;52.248;-0.844;2023-04-07T10:49:32;101227.28;;;27.24;24.29
62926;BME280;55732;52.248;-0.844;2023-04-07T10:54:37;101232.55;;;24.25;26.29
62926;BME280;55732;52.248;-0.844;2023-04-07T10:59:32;101233.05;;;21.86;29.15
62926;BME280;55732;52.248;-0.844;2023-04-07T11:04:45;101232.92;;;20.37;31.92
62926;BME280;55732;52.248;-0.844;2023-04-07T11:07:13;101230.16;;;19.61;32.82
62926;BME280;55732;52.248;-0.844;2023-04-07T11:09:41;101241.50;;;18.97;32.99
62926;BME280;55732;52.248;-0.844;2023-04-07T11:12:07;101243.81;;;18.37;33.66
62926;BME280;55732;52.248;-0.844;2023-04-07T11:14:33;101240.05;;;17.90;34.44
62926;BME280;55732;52.248;-0.844;2023-04-07T11:17:02;101235.98;;;17.61;35.26
62926;BME280;55732;52.248;-0.844;2023-04-07T11:19:28;101234.19;;;17.52;36.20
62926;BME280;55732;52.248;-0.844;2023-04-07T11:22:13;101231.03;;;17.59;36.58
62926;BME280;55732;52.248;-0.844;2023-04-07T11:24:39;101227.96;;;17.71;36.33
62926;BME280;55732;52.248;-0.844;2023-04-07T11:27:08;101227.64;;;17.87;36.87
62926;BME280;55732;52.248;-0.844;2023-04-07T11:29:36;101231.94;;;18.03;37.02
62926;BME280;55732;52.248;-0.844;2023-04-07T11:32:03;101234.74;;;18.04;36.55
62926;BME280;55732;52.248;-0.844;2023-04-07T11:34:32;101234.17;;;17.81;35.98
62926;BME280;55732;52.248;-0.844;2023-04-07T11:37:20;101235.79;;;17.52;35.85
62926;BME280;55732;52.248;-0.844;2023-04-07T11:39:53;101236.20;;;17.31;36.62
62926;BME280;55732;52.248;-0.844;2023-04-07T11:42:37;101231.92;;;17.31;36.71
62926;BME280;55732;52.248;-0.844;2023-04-07T11:45:05;101228.61;;;17.46;36.86
62926;BME280;55732;52.248;-0.844;2023-04-07T11:47:39;101224.95;;;17.60;36.96
62926;BME280;55732;52.248;-0.844;2023-04-07T11:50:05;101225.66;;;17.71;37.34
62926;BME280;55732;52.248;-0.844;2023-04-07T11:52:46;101228.30;;;17.81;37.02
62926;BME280;55732;52.248;-0.844;2023-04-07T11:55:19;101227.84;;;17.59;36.78
62926;BME280;55732;52.248;-0.844;2023-04-07T11:57:46;101226.77;;;17.50;37.06
62926;BME280;55732;52.248;-0.844;2023-04-07T12:00:13;101224.66;;;17.67;36.87
62926;BME280;55732;52.248;-0.844;2023-04-07T12:02:40;101230.30;;;17.79;36.39
62926;BME280;55732;52.248;-0.844;2023-04-07T12:05:06;101231.63;;;17.92;36.13
62926;BME280;55732;52.248;-0.844;2023-04-07T12:07:35;101233.58;;;17.92;36.01
62926;BME280;55732;52.248;-0.844;2023-04-07T12:10:17;101235.63;;;17.61;35.88
62926;BME280;55732;52.248;-0.844;2023-04-07T12:12:44;101234.42;;;17.30;36.40
62926;BME280;55732;52.248;-0.844;2023-04-07T12:15:10;101235.45;;;17.23;36.60
62926;BME280;55732;52.248;-0.844;2023-04-07T12:17:35;101237.10;;;17.40;36.26
62926;BME280;55732;52.248;-0.844;2023-04-07T12:20:01;101228.94;;;17.57;36.23
62926;BME280;55732;52.248;-0.844;2023-04-07T12:22:26;101229.14;;;17.66;36.11
62926;BME280;55732;52.248;-0.844;2023-04-07T12:24:52;101234.73;;;17.43;36.78
62926;BME280;55732;52.248;-0.844;2023-04-07T12:27:18;101242.30;;;17.08;36.89
62926;BME280;55732;52.248;-0.844;2023-04-07T12:29:43;101240.67;;;16.66;37.43
62926;BME280;55732;52.248;-0.844;2023-04-07T12:32:08;101237.14;;;16.28;37.89
62926;BME280;55732;52.248;-0.844;2023-04-07T12:34:34;101238.04;;;16.02;38.29
62926;BME280;55732;52.248;-0.844;2023-04-07T12:37:02;101237.77;;;16.08;38.14
62926;BME280;55732;52.248;-0.844;2023-04-07T12:39:27;101237.00;;;16.13;38.03
62926;BME280;55732;52.248;-0.844;2023-04-07T12:41:53;101236.02;;;16.19;37.85
62926;BME280;55732;52.248;-0.844;2023-04-07T12:44:18;101234.20;;;16.23;38.21
62926;BME280;55732;52.248;-0.844;2023-04-07T12:46:44;101235.30;;;16.32;38.05
62926;BME280;55732;52.248;-0.844;2023-04-07T12:49:09;101233.83;;;16.36;38.03
62926;BME280;55732;52.248;-0.844;2023-04-07T12:51:35;101233.05;;;16.28;38.19
62926;BME280;55732;52.248;-0.844;2023-04-07T12:54:01;101240.75;;;15.98;37.89
62926;BME280;55732;52.248;-0.844;2023-04-07T12:56:28;101240.83;;;15.61;38.05
62926;BME280;55732;52.248;-0.844;2023-04-07T12:58:54;101242.45;;;15.59;38.61
62926;BME280;55732;52.248;-0.844;2023-04-07T13:01:20;101248.67;;;15.58;38.75